Time;durP1;ratioP1;P1;durP2;ratioP2;P2;SDS_P1;SDS_P2;PMS_P1;PMS_P2;Temp;Humidity;BMP_temperature;BMP_pressure;BME280_temperature;BME280_humidity;BME280_pressure;Samples;Min_cycle;Max_cycle;Signal;HPM_P1;HPM_P2
2023/05/13 00:04:38;;;;;;;2.67;2.47;;;;;;;;;;10442897;28;20221;-78
2023/05/13 00:09:39;;;;;;;8.40;2.05;;;;;;;;;;10456651;28;20755;-77
2023/05/13 00:14:40;;;;;;;1.85;1.85;;;;;;;;;;10463612;28;20230;-78
2023/05/13 00:19:41;;;;;;;2.10;2.00;;;;;;;;;;10479516;28;20344;-77
2023/05/13 00:24:42;;;;;;;2.45;2.35;;;;;;;;;;10464923;28;20202;-78
2023/05/13 00:29:43;;;;;;;4.30;2.30;;;;;;;;;;10460791;28;20224;-78
2023/05/13 00:34:44;;;;;;;2.30;2.20;;;;;;;;;;10459109;28;20222;-77
2023/05/13 00:39:46;;;;;;;2.05;2.05;;;;;;;;;;10465509;28;20218;-76
2023/05/13 00:44:47;;;;;;;3.20;1.98;;;;;;;;;;10465701;28;20286;-77
2023/05/13 00:49:48;;;;;;;3.67;2.70;;;;;;;;;;10463293;28;20696;-77
2023/05/13 00:54:49;;;;;;;4.65;2.90;;;;;;;;;;10458499;28;20227;-79
2023/05/13 00:59:50;;;;;;;2.58;2.50;;;;;;;;;;10464004;28;20263;-79
2023/05/13 01:04:54;;;;;;;2.60;2.50;;;;;;;;;;10437395;28;21008;-79
2023/05/13 01:10:18;;;;;;;2.60;2.50;;;;;;;;;;10462214;28;20271;-76
2023/05/13 01:15:24;;;;;;;2.05;2.05;;;;;;;;;;10471241;28;20213;-76
2023/05/13 01:20:26;;;;;;;2.88;2.78;;;;;;;;;;10482357;28;20233;-77
2023/05/13 01:25:27;;;;;;;2.53;2.40;;;;;;;;;;10464297;28;20221;-76
2023/05/13 01:30:29;;;;;;;2.45;2.35;;;;;;;;;;10470392;28;20213;-77
2023/05/13 01:35:30;;;;;;;2.30;2.20;;;;;;;;;;10437580;28;20223;-76
2023/05/13 01:40:32;;;;;;;3.70;2.35;;;;;;;;;;10462777;28;20232;-76
2023/05/13 01:45:38;;;;;;;2.60;2.40;;;;;;;;;;10464128;28;20643;-77
2023/05/13 01:50:40;;;;;;;2.53;2.22;;;;;;;;;;10443379;28;20252;-77
2023/05/13 01:55:41;;;;;;;1.83;1.83;;;;;;;;;;10477837;28;20228;-75
2023/05/13 02:00:43;;;;;;;2.63;2.42;;;;;;;;;;10444409;28;20247;-78
2023/05/13 02:05:46;;;;;;;2.75;2.55;;;;;;;;;;10475140;28;20237;-80
2023/05/13 02:10:56;;;;;;;3.22;2.75;;;;;;;;;;10458873;28;20783;-79
2023/05/13 02:15:58;;;;;;;2.70;2.60;;;;;;;;;;10447198;28;20935;-76
2023/05/13 02:20:59;;;;;;;2.70;2.60;;;;;;;;;;10478466;28;20221;-74
2023/05/13 02:26:00;;;;;;;2.55;2.45;;;;;;;;;;10449577;28;20954;-74
2023/05/13 02:31:01;;;;;;;4.53;2.85;;;;;;;;;;10455942;28;20313;-77
2023/05/13 02:36:03;;;;;;;2.85;2.65;;;;;;;;;;10461635;28;20721;-77
2023/05/13 02:41:04;;;;;;;6.53;2.75;;;;;;;;;;10470023;28;20308;-78
2023/05/13 02:46:05;;;;;;;6.82;3.13;;;;;;;;;;10466871;28;20228;-77
2023/05/13 02:51:08;;;;;;;2.88;2.78;;;;;;;;;;10468904;28;20225;-77
2023/05/13 02:56:09;;;;;;;3.15;3.05;;;;;;;;;;10465069;28;20213;-78
2023/05/13 03:01:11;;;;;;;3.22;3.00;;;;;;;;;;10461783;28;20328;-74
2023/05/13 03:06:12;;;;;;;3.90;2.75;;;;;;;;;;10454239;28;20214;-77
2023/05/13 03:11:13;;;;;;;3.33;3.13;;;;;;;;;;10492728;28;20691;-79
2023/05/13 03:16:14;;;;;;;5.22;2.78;;;;;;;;;;10497109;28;20249;-76
2023/05/13 03:21:16;;;;;;;3.70;3.40;;;;;;;;;;10489386;28;20214;-77
2023/05/13 03:26:17;;;;;;;3.38;3.05;;;;;;;;;;10468301;28;20230;-77
2023/05/13 03:31:19;;;;;;;3.45;3.25;;;;;;;;;;10475340;28;20898;-77
2023/05/13 03:36:20;;;;;;;3.10;2.90;;;;;;;;;;10472332;28;20215;-78
2023/05/13 03:41:22;;;;;;;4.25;2.85;;;;;;;;;;10446060;28;20223;-78
2023/05/13 03:46:26;;;;;;;3.45;3.00;;;;;;;;;;10484175;28;20367;-79
2023/05/13 03:51:27;;;;;;;3.22;3.13;;;;;;;;;;10461925;28;20328;-75
2023/05/13 03:56:28;;;;;;;3.47;3.28;;;;;;;;;;10465527;28;20258;-77
2023/05/13 04:01:29;;;;;;;2.72;2.67;;;;;;;;;;10466061;28;20249;-77
2023/05/13 04:06:31;;;;;;;3.40;2.75;;;;;;;;;;10455619;28;20213;-78
2023/05/13 04:11:32;;;;;;;3.05;2.63;;;;;;;;;;10453060;28;20292;-78
2023/05/13 04:16:33;;;;;;;2.83;2.70;;;;;;;;;;10480552;28;20228;-76
2023/05/13 04:21:34;;;;;;;3.40;3.03;;;;;;;;;;10489372;28;20876;-77
2023/05/13 04:26:37;;;;;;;4.28;3.33;;;;;;;;;;10480828;28;20210;-75
2023/05/13 04:31:38;;;;;;;3.88;2.92;;;;;;;;;;10451520;28;20217;-78
2023/05/13 04:36:39;;;;;;;3.17;3.00;;;;;;;;;;10439110;28;20316;-78
2023/05/13 04:41:40;;;;;;;5.40;3.25;;;;;;;;;;10443826;28;20768;-78
2023/05/13 04:46:43;;;;;;;6.50;3.00;;;;;;;;;;10447340;28;20222;-79
2023/05/13 04:51:45;;;;;;;3.00;2.90;;;;;;;;;;10452162;28;21140;-78
2023/05/13 04:56:47;;;;;;;7.20;3.20;;;;;;;;;;10445303;28;20237;-76
2023/05/13 05:01:48;;;;;;;5.55;3.47;;;;;;;;;;10443561;28;20783;-78
2023/05/13 05:06:49;;;;;;;3.97;3.78;;;;;;;;;;10461895;28;20213;-77
2023/05/13 05:11:51;;;;;;;6.53;3.03;;;;;;;;;;10429299;28;20221;-79
2023/05/13 05:16:54;;;;;;;3.85;3.55;;;;;;;;;;10447433;28;20348;-76
2023/05/13 05:21:56;;;;;;;7.47;3.47;;;;;;;;;;10455363;28;20718;-78
2023/05/13 05:26:57;;;;;;;4.15;3.85;;;;;;;;;;10440246;28;20214;-78
2023/05/13 05:31:59;;;;;;;4.22;3.83;;;;;;;;;;10452017;28;20213;-78
2023/05/13 05:37:00;;;;;;;3.92;3.72;;;;;;;;;;10454444;28;20221;-74
2023/05/13 05:42:01;;;;;;;4.05;3.85;;;;;;;;;;10450789;28;20316;-78
2023/05/13 05:47:02;;;;;;;5.18;3.60;;;;;;;;;;10441621;28;20228;-77
2023/05/13 05:52:04;;;;;;;3.63;3.33;;;;;;;;;;10441157;28;20248;-78
2023/05/13 05:57:05;;;;;;;3.80;3.60;;;;;;;;;;10439960;28;20748;-78
2023/05/13 06:02:07;;;;;;;3.63;3.42;;;;;;;;;;10450092;28;20358;-77
2023/05/13 06:07:08;;;;;;;3.97;3.67;;;;;;;;;;10467805;28;20772;-78
2023/05/13 06:12:09;;;;;;;8.07;4.38;;;;;;;;;;10474671;28;20214;-78
2023/05/13 06:17:13;;;;;;;3.70;3.50;;;;;;;;;;10449087;28;20336;-79
2023/05/13 06:22:14;;;;;;;4.70;4.25;;;;;;;;;;10462445;28;20291;-79
2023/05/13 06:27:16;;;;;;;5.95;3.55;;;;;;;;;;10466640;28;20261;-77
2023/05/13 06:32:17;;;;;;;4.60;3.85;;;;;;;;;;10466355;28;20213;-78
2023/05/13 06:37:18;;;;;;;3.72;3.42;;;;;;;;;;10469964;28;20270;-76
2023/05/13 06:42:20;;;;;;;3.90;3.53;;;;;;;;;;10464546;28;21061;-77
2023/05/13 06:47:29;;;;;;;3.65;3.38;;;;;;;;;;10460069;28;20219;-77
2023/05/13 06:52:30;;;;;;;3.30;3.10;;;;;;;;;;10461016;28;20226;-80
2023/05/13 06:57:31;;;;;;;3.25;3.05;;;;;;;;;;10479601;28;20815;-77
2023/05/13 07:02:32;;;;;;;30.60;3.63;;;;;;;;;;10474742;28;20217;-77
2023/05/13 07:07:33;;;;;;;4.22;3.60;;;;;;;;;;10482363;28;20224;-78
2023/05/13 07:12:34;;;;;;;3.50;3.20;;;;;;;;;;10446808;28;20244;-79
2023/05/13 07:17:35;;;;;;;4.03;3.35;;;;;;;;;;10469381;28;20221;-77
2023/05/13 07:22:36;;;;;;;3.55;3.35;;;;;;;;;;10466682;28;20244;-79
2023/05/13 07:27:37;;;;;;;4.18;3.78;;;;;;;;;;10475140;28;20275;-79
2023/05/13 07:32:38;;;;;;;3.42;3.30;;;;;;;;;;10465251;28;20267;-77
2023/05/13 07:37:39;;;;;;;3.30;3.20;;;;;;;;;;10477049;28;20249;-77
2023/05/13 07:42:40;;;;;;;3.85;3.53;;;;;;;;;;10450987;28;20270;-79
2023/05/13 07:47:41;;;;;;;3.50;3.30;;;;;;;;;;10466565;28;20241;-80
2023/05/13 07:52:43;;;;;;;4.88;3.53;;;;;;;;;;10472853;28;20218;-76
2023/05/13 07:57:44;;;;;;;5.45;3.25;;;;;;;;;;10470232;28;20210;-76
2023/05/13 08:02:44;;;;;;;3.47;3.28;;;;;;;;;;10474148;28;20257;-79
2023/05/13 08:07:45;;;;;;;3.20;3.10;;;;;;;;;;10491646;28;20596;-79
2023/05/13 08:12:51;;;;;;;3.30;3.00;;;;;;;;;;10489446;28;20224;-78
2023/05/13 08:17:52;;;;;;;3.30;3.20;;;;;;;;;;10455407;28;20217;-77
2023/05/13 08:22:53;;;;;;;3.25;3.10;;;;;;;;;;10453630;28;20205;-78
2023/05/13 08:27:54;;;;;;;3.67;2.65;;;;;;;;;;10482854;28;20703;-77
2023/05/13 08:32:55;;;;;;;2.45;2.25;;;;;;;;;;10478228;28;20213;-78
2023/05/13 08:37:56;;;;;;;3.15;2.63;;;;;;;;;;10473186;28;20270;-79
2023/05/13 08:43:01;;;;;;;2.65;1.58;;;;;;;;;;10483730;28;20216;-77
2023/05/13 08:48:02;;;;;;;1.65;1.35;;;;;;;;;;10489759;28;20210;-77
2023/05/13 08:53:03;;;;;;;1.35;1.30;;;;;;;;;;10455843;28;20743;-79
2023/05/13 08:58:04;;;;;;;0.95;0.95;;;;;;;;;;10457017;28;20217;-79
2023/05/13 09:03:05;;;;;;;7.15;1.30;;;;;;;;;;10488607;28;20229;-79
2023/05/13 09:08:08;;;;;;;2.30;1.33;;;;;;;;;;10464098;28;20241;-79
2023/05/13 09:13:10;;;;;;;1.40;1.30;;;;;;;;;;10469272;28;20294;-77
2023/05/13 09:18:12;;;;;;;0.95;0.90;;;;;;;;;;10470791;28;20241;-78
2023/05/13 09:23:14;;;;;;;2.25;0.95;;;;;;;;;;10452260;28;20321;-78
2023/05/13 09:28:15;;;;;;;1.20;1.00;;;;;;;;;;10485578;28;20255;-76
2023/05/13 09:33:20;;;;;;;0.98;0.80;;;;;;;;;;10487562;28;20217;-77
2023/05/13 09:38:33;;;;;;;1.60;1.10;;;;;;;;;;10463684;28;20217;-79
2023/05/13 09:43:35;;;;;;;1.10;1.10;;;;;;;;;;10482956;28;20564;-79
2023/05/13 09:48:36;;;;;;;1.13;1.13;;;;;;;;;;10485282;28;20218;-80
2023/05/13 09:53:40;;;;;;;1.50;1.08;;;;;;;;;;10490195;28;21136;-79
2023/05/13 09:58:50;;;;;;;1.00;1.00;;;;;;;;;;10468685;28;20695;-79
2023/05/13 10:03:52;;;;;;;1.00;1.00;;;;;;;;;;10471840;28;20241;-80
2023/05/13 10:08:55;;;;;;;4.70;1.08;;;;;;;;;;10472373;28;20225;-80
2023/05/13 10:13:58;;;;;;;1.60;1.27;;;;;;;;;;10483278;28;20214;-80
2023/05/13 10:19:00;;;;;;;3.50;1.00;;;;;;;;;;10445705;28;20590;-79
2023/05/13 10:24:01;;;;;;;1.17;1.02;;;;;;;;;;10487036;28;20576;-77
2023/05/13 10:29:02;;;;;;;0.90;0.90;;;;;;;;;;10494142;28;20218;-79
2023/05/13 10:34:03;;;;;;;0.80;0.80;;;;;;;;;;10455550;28;20278;-79
2023/05/13 10:39:23;;;;;;;1.95;1.20;;;;;;;;;;10494472;28;20265;-76
2023/05/13 10:44:24;;;;;;;1.00;0.90;;;;;;;;;;10477807;28;20961;-77
2023/05/13 10:49:32;;;;;;;0.95;0.95;;;;;;;;;;10481238;28;20218;-78
2023/05/13 10:54:37;;;;;;;1.15;1.05;;;;;;;;;;10480491;28;20998;-77
2023/05/13 10:59:58;;;;;;;0.68;0.68;;;;;;;;;;10468350;28;20225;-80
2023/05/13 11:04:59;;;;;;;0.93;0.93;;;;;;;;;;10463353;28;20213;-78
2023/05/13 11:10:00;;;;;;;1.08;1.08;;;;;;;;;;10468793;28;20246;-76
2023/05/13 11:15:01;;;;;;;1.67;0.95;;;;;;;;;;10490392;28;20217;-77
2023/05/13 11:20:02;;;;;;;1.17;1.17;;;;;;;;;;10471170;28;21647;-78
2023/05/13 11:25:05;;;;;;;1.58;1.48;;;;;;;;;;10471450;28;20206;-76
2023/05/13 11:30:07;;;;;;;1.50;1.40;;;;;;;;;;10490025;28;20249;-80
2023/05/13 11:35:09;;;;;;;1.95;1.55;;;;;;;;;;10487522;28;20814;-79
2023/05/13 11:40:10;;;;;;;1.50;1.50;;;;;;;;;;10487070;28;20213;-78
2023/05/13 11:45:11;;;;;;;3.33;1.40;;;;;;;;;;10461213;28;20197;-79
2023/05/13 11:50:28;;;;;;;1.95;1.38;;;;;;;;;;10489387;28;20324;-78
2023/05/13 11:55:31;;;;;;;1.75;1.15;;;;;;;;;;10479562;28;20306;-79
2023/05/13 12:00:33;;;;;;;2.63;1.20;;;;;;;;;;10486389;28;20257;-76
2023/05/13 12:05:34;;;;;;;1.60;0.85;;;;;;;;;;10489431;28;20404;-77
2023/05/13 12:10:41;;;;;;;2.47;1.27;;;;;;;;;;10455001;28;20285;-76
2023/05/13 12:15:42;;;;;;;1.55;1.10;;;;;;;;;;10469133;28;20221;-77
2023/05/13 12:20:43;;;;;;;3.70;0.90;;;;;;;;;;10468239;28;20226;-78
2023/05/13 12:25:46;;;;;;;1.58;1.20;;;;;;;;;;10436002;28;20236;-77
2023/05/13 12:30:57;;;;;;;1.27;1.17;;;;;;;;;;10455191;28;21962;-79
2023/05/13 12:36:14;;;;;;;2.58;1.38;;;;;;;;;;10449913;28;20342;-78
2023/05/13 12:41:17;;;;;;;2.00;1.40;;;;;;;;;;10469246;28;20453;-78
2023/05/13 12:46:19;;;;;;;1.85;1.20;;;;;;;;;;10431096;28;20275;-79
2023/05/13 12:51:20;;;;;;;1.75;1.23;;;;;;;;;;10462080;28;20248;-79
2023/05/13 12:56:22;;;;;;;1.38;1.17;;;;;;;;;;10476925;28;20228;-79
2023/05/13 13:01:23;;;;;;;2.10;1.30;;;;;;;;;;10456741;28;20232;-79
2023/05/13 13:06:24;;;;;;;1.30;1.30;;;;;;;;;;10480516;28;20215;-78
2023/05/13 13:11:25;;;;;;;2.25;1.25;;;;;;;;;;10439462;28;20719;-80
2023/05/13 13:16:26;;;;;;;2.00;1.25;;;;;;;;;;10477173;28;20222;-78
2023/05/13 13:21:27;;;;;;;2.95;1.10;;;;;;;;;;10476187;28;20229;-80
2023/05/13 13:26:29;;;;;;;1.67;1.23;;;;;;;;;;10440154;28;20303;-80
2023/05/13 13:31:30;;;;;;;1.35;1.35;;;;;;;;;;10457992;28;20270;-80
2023/05/13 13:36:31;;;;;;;1.42;1.27;;;;;;;;;;10466877;28;20221;-81
2023/05/13 13:41:32;;;;;;;1.25;1.25;;;;;;;;;;10464623;28;21256;-79
2023/05/13 13:46:33;;;;;;;1.27;1.17;;;;;;;;;;10471354;28;20279;-81
2023/05/13 13:51:34;;;;;;;1.75;1.33;;;;;;;;;;10483070;28;20267;-80
2023/05/13 13:56:38;;;;;;;1.45;1.38;;;;;;;;;;10459550;28;20217;-78
2023/05/13 14:01:39;;;;;;;1.40;1.30;;;;;;;;;;10461373;28;21170;-80
2023/05/13 14:06:41;;;;;;;1.48;0.90;;;;;;;;;;10452151;28;20221;-82
2023/05/13 14:11:42;;;;;;;2.33;1.45;;;;;;;;;;10446207;28;20225;-78
2023/05/13 14:16:43;;;;;;;1.38;1.38;;;;;;;;;;10461583;28;20786;-78
2023/05/13 14:21:46;;;;;;;6.03;1.73;;;;;;;;;;10446777;28;20218;-81
2023/05/13 14:26:48;;;;;;;1.65;1.20;;;;;;;;;;10479692;28;20237;-79
2023/05/13 14:31:49;;;;;;;1.77;1.33;;;;;;;;;;10457310;28;20213;-79
2023/05/13 14:36:51;;;;;;;1.38;1.38;;;;;;;;;;10488989;28;20213;-79
2023/05/13 14:41:52;;;;;;;1.13;1.02;;;;;;;;;;10435219;28;20289;-80
2023/05/13 14:46:53;;;;;;;1.85;1.40;;;;;;;;;;10446325;28;20218;-78
2023/05/13 14:51:54;;;;;;;1.30;1.30;;;;;;;;;;10453084;28;20221;-80
2023/05/13 14:56:55;;;;;;;1.40;1.40;;;;;;;;;;10449805;28;20244;-78
2023/05/13 15:01:56;;;;;;;1.70;1.70;;;;;;;;;;10465842;28;20230;-81
2023/05/13 15:06:58;;;;;;;1.20;1.20;;;;;;;;;;10479439;28;20743;-79
2023/05/13 15:11:59;;;;;;;1.00;1.00;;;;;;;;;;10484775;28;20214;-81
2023/05/13 15:17:00;;;;;;;2.42;1.38;;;;;;;;;;10457027;28;20257;-79
2023/05/13 15:22:01;;;;;;;1.50;1.50;;;;;;;;;;10470602;28;20316;-78
2023/05/13 15:27:02;;;;;;;1.65;1.40;;;;;;;;;;10466561;28;20532;-80
2023/05/13 15:32:05;;;;;;;3.17;1.40;;;;;;;;;;10458012;28;20291;-81
2023/05/13 15:37:06;;;;;;;1.65;1.55;;;;;;;;;;10491029;28;20313;-82
2023/05/13 15:42:07;;;;;;;1.30;1.20;;;;;;;;;;10441381;28;20755;-79
2023/05/13 15:47:08;;;;;;;1.63;1.52;;;;;;;;;;10490392;28;20823;-80
2023/05/13 15:52:09;;;;;;;1.67;1.30;;;;;;;;;;10493458;28;20218;-80
2023/05/13 15:57:10;;;;;;;1.20;1.20;;;;;;;;;;10485435;28;20240;-81
2023/05/13 16:02:11;;;;;;;1.30;1.30;;;;;;;;;;10437529;28;20229;-80
2023/05/13 16:07:12;;;;;;;2.17;2.13;;;;;;;;;;10486612;28;20213;-80
2023/05/13 16:12:14;;;;;;;1.50;1.50;;;;;;;;;;10491794;28;20258;-80
2023/05/13 16:17:15;;;;;;;1.40;1.20;;;;;;;;;;10468163;28;20305;-80
2023/05/13 16:22:31;;;;;;;1.33;1.33;;;;;;;;;;10486606;28;20225;-77
2023/05/13 16:27:32;;;;;;;22.25;10.52;;;;;;;;;;10470163;28;20282;-80
2023/05/13 16:32:34;;;;;;;4.88;1.58;;;;;;;;;;10486581;28;20237;-80
2023/05/13 16:37:35;;;;;;;1.73;1.20;;;;;;;;;;10464353;28;20778;-80
2023/05/13 16:42:36;;;;;;;3.72;1.52;;;;;;;;;;10489015;28;21156;-78
2023/05/13 16:47:37;;;;;;;1.40;1.40;;;;;;;;;;10484706;28;20313;-81
2023/05/13 16:52:38;;;;;;;2.50;1.33;;;;;;;;;;10465863;28;20245;-79
2023/05/13 16:57:39;;;;;;;1.83;1.70;;;;;;;;;;10470338;28;20234;-79
2023/05/13 17:02:42;;;;;;;1.67;1.67;;;;;;;;;;10453727;28;20222;-80
2023/05/13 17:07:43;;;;;;;1.40;1.40;;;;;;;;;;10476763;28;20218;-77
2023/05/13 17:12:44;;;;;;;1.30;1.23;;;;;;;;;;10489807;28;20214;-80
2023/05/13 17:17:45;;;;;;;1.63;1.27;;;;;;;;;;10461319;28;20788;-79
2023/05/13 17:22:46;;;;;;;4.28;1.65;;;;;;;;;;10461524;28;20206;-79
2023/05/13 17:27:47;;;;;;;1.55;1.55;;;;;;;;;;10453980;28;20359;-79
2023/05/13 17:32:48;;;;;;;3.05;2.08;;;;;;;;;;10483127;28;20759;-79
2023/05/13 17:37:49;;;;;;;1.60;1.55;;;;;;;;;;10465959;28;20213;-80
2023/05/13 17:42:50;;;;;;;1.92;1.77;;;;;;;;;;10484866;28;20225;-78
2023/05/13 17:47:51;;;;;;;2.28;2.15;;;;;;;;;;10485733;28;20260;-78
2023/05/13 17:52:52;;;;;;;2.35;2.25;;;;;;;;;;10483808;28;20959;-81
2023/05/13 17:57:57;;;;;;;1.90;1.80;;;;;;;;;;10486119;28;20209;-78
2023/05/13 18:02:58;;;;;;;2.63;2.53;;;;;;;;;;10472825;28;20217;-78
2023/05/13 18:07:59;;;;;;;1.73;1.63;;;;;;;;;;10474608;28;20213;-77
2023/05/13 18:13:00;;;;;;;2.53;2.40;;;;;;;;;;10464579;28;20206;-79
2023/05/13 18:18:02;;;;;;;1.90;1.83;;;;;;;;;;10473739;28;20318;-79
2023/05/13 18:23:03;;;;;;;2.38;2.28;;;;;;;;;;10494595;28;20593;-78
2023/05/13 18:28:04;;;;;;;3.28;1.70;;;;;;;;;;10467952;28;20216;-77
2023/05/13 18:33:05;;;;;;;2.33;2.20;;;;;;;;;;10473785;28;20218;-79
2023/05/13 18:38:06;;;;;;;2.05;1.88;;;;;;;;;;10492525;28;20232;-77
2023/05/13 18:43:07;;;;;;;2.38;2.28;;;;;;;;;;10474646;28;20208;-77
2023/05/13 18:48:08;;;;;;;3.65;3.20;;;;;;;;;;10482949;28;20236;-77
2023/05/13 18:53:09;;;;;;;3.05;2.95;;;;;;;;;;10464009;28;20217;-76
2023/05/13 18:58:10;;;;;;;2.00;1.90;;;;;;;;;;10499848;28;20271;-78
2023/05/13 19:03:11;;;;;;;2.35;1.80;;;;;;;;;;10484858;28;20209;-77
2023/05/13 19:08:12;;;;;;;1.80;1.80;;;;;;;;;;10467655;28;20598;-78
2023/05/13 19:31:26;;;;;;;2.25;2.15;;;;;;;;;;10458380;28;20244;-80
2023/05/13 19:36:27;;;;;;;2.00;1.90;;;;;;;;;;10475219;28;20213;-79
2023/05/13 19:41:28;;;;;;;1.42;1.42;;;;;;;;;;10456752;28;20286;-80
2023/05/13 19:46:29;;;;;;;1.48;1.48;;;;;;;;;;10468412;28;20214;-79
2023/05/13 19:51:31;;;;;;;4.45;1.38;;;;;;;;;;10461551;28;20344;-79
2023/05/13 19:56:32;;;;;;;1.58;1.48;;;;;;;;;;10479691;28;20209;-78
2023/05/13 20:01:33;;;;;;;2.25;1.23;;;;;;;;;;10460331;28;20217;-80
2023/05/13 20:06:35;;;;;;;0.80;0.80;;;;;;;;;;10486915;28;21018;-79
2023/05/13 20:11:36;;;;;;;1.17;1.10;;;;;;;;;;10477117;28;20229;-81
2023/05/13 20:16:37;;;;;;;1.50;1.40;;;;;;;;;;10485828;28;20600;-79
2023/05/13 20:21:38;;;;;;;1.70;1.55;;;;;;;;;;10491884;28;20229;-78
2023/05/13 20:26:39;;;;;;;1.33;1.33;;;;;;;;;;10460343;28;20230;-77
2023/05/13 20:31:41;;;;;;;1.45;1.45;;;;;;;;;;10449586;28;20241;-79
2023/05/13 20:36:42;;;;;;;1.13;1.13;;;;;;;;;;10477510;28;20225;-79
2023/05/13 20:47:47;;;;;;;1.20;1.10;;;;;;;;;;10472085;28;20406;-81
2023/05/13 20:52:48;;;;;;;1.20;1.20;;;;;;;;;;10492110;28;20309;-80
2023/05/13 20:57:49;;;;;;;1.50;1.45;;;;;;;;;;10459221;28;20233;-80
2023/05/13 21:02:51;;;;;;;3.97;1.77;;;;;;;;;;10460343;28;20890;-80
2023/05/13 21:07:52;;;;;;;2.08;1.50;;;;;;;;;;10449731;28;20218;-77
2023/05/13 21:12:53;;;;;;;1.23;1.23;;;;;;;;;;10467930;28;20209;-78
2023/05/13 21:17:54;;;;;;;2.58;1.50;;;;;;;;;;10467931;28;20217;-78
2023/05/13 21:22:55;;;;;;;1.58;1.52;;;;;;;;;;10498071;28;20308;-77
2023/05/13 21:27:56;;;;;;;1.90;1.80;;;;;;;;;;10487112;28;20206;-77
2023/05/13 21:32:58;;;;;;;2.38;2.28;;;;;;;;;;10481750;28;20577;-77
2023/05/13 21:37:59;;;;;;;2.35;2.25;;;;;;;;;;10483954;28;20209;-77
2023/05/13 21:43:00;;;;;;;2.08;2.08;;;;;;;;;;10481677;28;20597;-76
2023/05/13 21:48:01;;;;;;;2.00;1.90;;;;;;;;;;10487784;28;20214;-78
2023/05/13 21:53:03;;;;;;;3.42;3.22;;;;;;;;;;10471217;28;20269;-77
2023/05/13 21:58:04;;;;;;;5.05;4.72;;;;;;;;;;10476463;28;20217;-77
2023/05/13 22:03:05;;;;;;;10.90;8.50;;;;;;;;;;10484767;28;20533;-77
2023/05/13 22:08:06;;;;;;;7.80;6.53;;;;;;;;;;10485769;28;20206;-78
2023/05/13 22:13:07;;;;;;;8.52;6.80;;;;;;;;;;10483064;28;20211;-79
2023/05/13 22:18:11;;;;;;;23.60;12.95;;;;;;;;;;10484128;28;20229;-76
2023/05/13 22:23:12;;;;;;;14.52;10.23;;;;;;;;;;10491036;28;20210;-78
2023/05/13 22:28:13;;;;;;;8.05;6.05;;;;;;;;;;10470972;28;20221;-77
2023/05/13 22:33:14;;;;;;;13.00;9.63;;;;;;;;;;10473976;28;20214;-76
2023/05/13 22:38:15;;;;;;;15.13;10.32;;;;;;;;;;10469246;28;20225;-77
2023/05/13 22:43:17;;;;;;;22.83;12.60;;;;;;;;;;10474664;28;20222;-76
2023/05/13 22:48:18;;;;;;;16.27;10.85;;;;;;;;;;10475218;28;20358;-78
2023/05/13 22:53:19;;;;;;;8.77;6.82;;;;;;;;;;10495845;28;20234;-77
2023/05/13 22:58:20;;;;;;;6.30;5.10;;;;;;;;;;10472329;28;20230;-77
2023/05/13 23:03:21;;;;;;;6.00;5.07;;;;;;;;;;10499356;28;20253;-79
2023/05/13 23:08:22;;;;;;;6.00;5.05;;;;;;;;;;10500174;28;20301;-76
2023/05/13 23:13:24;;;;;;;14.38;9.30;;;;;;;;;;10474810;28;20700;-78
2023/05/13 23:18:25;;;;;;;7.85;6.25;;;;;;;;;;10476126;28;20218;-78
2023/05/13 23:23:26;;;;;;;5.85;5.45;;;;;;;;;;10509855;28;20680;-78
2023/05/13 23:28:27;;;;;;;6.45;5.40;;;;;;;;;;10506873;28;20331;-78
2023/05/13 23:33:28;;;;;;;7.72;6.30;;;;;;;;;;10487706;28;20213;-76
2023/05/13 23:38:29;;;;;;;7.28;5.82;;;;;;;;;;10505261;28;20228;-74
2023/05/13 23:43:30;;;;;;;16.13;11.05;;;;;;;;;;10479227;28;20206;-76
2023/05/13 23:48:31;;;;;;;6.43;5.38;;;;;;;;;;10482068;28;20592;-75
2023/05/13 23:53:32;;;;;;;7.07;6.18;;;;;;;;;;10468010;28;20224;-76
2023/05/13 23:58:33;;;;;;;7.97;6.35;;;;;;;;;;10483024;28;20241;-77
